Time;durP1;ratioP1;P1;durP2;ratioP2;P2;SDS_P1;SDS_P2;PMS_P1;PMS_P2;Temp;Humidity;BMP_temperature;BMP_pressure;BME280_temperature;BME280_humidity;BME280_pressure;Samples;Min_cycle;Max_cycle;Signal;HPM_P1;HPM_P2
2022/12/04 00:01:19;;;;;;;;;;;;;;;8.43;72.15;101242.22;7391267;19;19936;-89
2022/12/04 00:03:52;;;;;;;;;;;;;;;8.39;73.48;101239.00;7390168;19;19938;-88
2022/12/04 00:06:20;;;;;;;;;;;;;;;8.38;73.54;101236.53;7390507;19;19930;-89
2022/12/04 00:09:01;;;;;;;;;;;;;;;8.37;73.33;101227.00;7385388;19;19936;-88
2022/12/04 00:11:30;;;;;;;;;;;;;;;8.35;73.35;101221.88;7388059;19;19952;-89
2022/12/04 00:13:58;;;;;;;;;;;;;;;8.43;73.06;101237.78;7383869;19;19984;-88
2022/12/04 00:16:35;;;;;;;;;;;;;;;8.44;72.35;101228.13;7389582;19;20696;-87
2022/12/04 00:19:06;;;;;;;;;;;;;;;8.43;73.38;101223.88;7390907;19;20321;-88
2022/12/04 00:21:33;;;;;;;;;;;;;;;8.40;73.42;101229.34;7388987;19;19945;-89
2022/12/04 00:24:20;;;;;;;;;;;;;;;8.38;71.33;101223.41;7389914;19;20551;-88
2022/12/04 00:27:03;;;;;;;;;;;;;;;8.37;71.78;101222.59;7386603;19;19925;-88
2022/12/04 00:30:15;;;;;;;;;;;;;;;8.34;71.48;101225.44;7381111;19;19919;-88
2022/12/04 00:32:43;;;;;;;;;;;;;;;8.35;70.63;101214.00;7383394;19;19919;-88
2022/12/04 00:42:13;;;;;;;;;;;;;;;8.34;68.14;101208.88;7381432;19;19975;-87
2022/12/04 00:44:54;;;;;;;;;;;;;;;8.27;68.76;101202.47;7379500;19;19915;-87
2022/12/04 00:47:31;;;;;;;;;;;;;;;8.28;68.73;101198.91;7385221;19;19923;-88
2022/12/04 00:56:52;;;;;;;;;;;;;;;8.14;67.26;101182.53;7386911;19;19925;-88
2022/12/04 00:59:25;;;;;;;;;;;;;;;8.15;68.14;101181.56;7384380;19;19933;-87
2022/12/04 01:01:55;;;;;;;;;;;;;;;8.21;66.67;101197.75;7389488;19;20312;-89
2022/12/04 01:04:56;;;;;;;;;;;;;;;8.23;67.03;101190.59;7388567;19;19922;-86
2022/12/04 01:07:24;;;;;;;;;;;;;;;8.20;67.58;101191.66;7384168;19;19946;-88
2022/12/04 01:10:17;;;;;;;;;;;;;;;8.18;67.72;101202.28;7378060;19;19926;-87
2022/12/04 01:13:05;;;;;;;;;;;;;;;8.18;68.06;101193.56;7381640;19;19922;-87
2022/12/04 01:15:52;;;;;;;;;;;;;;;8.16;68.47;101190.28;7376343;19;19946;-87
2022/12/04 01:21:49;;;;;;;;;;;;;;;8.11;69.39;101193.28;7378763;19;19934;-87
2022/12/04 01:24:24;;;;;;;;;;;;;;;8.10;69.66;101181.13;7381975;19;20524;-89
2022/12/04 01:26:53;;;;;;;;;;;;;;;8.08;70.25;101188.28;7379872;19;20757;-86
2022/12/04 01:29:23;;;;;;;;;;;;;;;8.10;71.44;101186.38;7383941;19;20796;-88
2022/12/04 01:32:02;;;;;;;;;;;;;;;8.10;71.77;101181.13;7381231;19;19994;-89
2022/12/04 01:34:50;;;;;;;;;;;;;;;8.11;71.10;101176.72;7380392;19;19930;-87
2022/12/04 01:37:42;;;;;;;;;;;;;;;8.13;72.51;101180.84;7383138;19;19943;-87
2022/12/04 01:43:25;;;;;;;;;;;;;;;8.16;71.76;101171.94;7384536;19;19922;-88
2022/12/04 01:45:58;;;;;;;;;;;;;;;8.18;71.28;101177.84;7386988;19;19953;-88
2022/12/04 01:48:32;;;;;;;;;;;;;;;8.17;73.43;101178.84;7382840;19;19918;-86
2022/12/04 01:51:09;;;;;;;;;;;;;;;8.17;74.95;101176.22;7383739;19;19918;-88
2022/12/04 01:54:05;;;;;;;;;;;;;;;8.13;71.82;101177.41;7384516;19;19918;-88
2022/12/04 01:56:43;;;;;;;;;;;;;;;8.10;72.65;101169.81;7383084;19;20364;-89
2022/12/04 01:59:38;;;;;;;;;;;;;;;8.11;71.24;101172.31;7386226;19;19942;-88
2022/12/04 02:02:10;;;;;;;;;;;;;;;8.08;71.28;101169.09;7384072;19;19922;-87
2022/12/04 02:04:42;;;;;;;;;;;;;;;8.06;71.02;101171.88;7384217;19;19923;-87
2022/12/04 02:07:14;;;;;;;;;;;;;;;8.03;70.79;101172.09;7383381;19;19910;-88
2022/12/04 02:09:54;;;;;;;;;;;;;;;8.03;70.91;101169.50;7382959;19;19939;-87
2022/12/04 02:13:10;;;;;;;;;;;;;;;8.00;72.24;101167.13;7380145;19;19919;-88
2022/12/04 02:15:20;;;;;;;;;;;;;;;8.01;71.17;101165.34;7380960;19;19914;-88
2022/12/04 02:18:10;;;;;;;;;;;;;;;7.95;71.40;101171.09;7381952;19;19926;-88
2022/12/04 02:20:40;;;;;;;;;;;;;;;7.97;70.76;101169.19;7380772;19;19911;-88
2022/12/04 02:23:07;;;;;;;;;;;;;;;7.97;70.54;101161.31;7382316;19;19930;-88
2022/12/04 02:25:43;;;;;;;;;;;;;;;7.92;71.18;101169.56;7380716;19;20432;-87
2022/12/04 02:28:11;;;;;;;;;;;;;;;7.90;70.73;101166.25;7379998;19;19915;-88
2022/12/04 02:30:40;;;;;;;;;;;;;;;7.83;71.37;101157.22;7381529;19;19947;-87
2022/12/04 02:33:14;;;;;;;;;;;;;;;7.79;71.95;101158.44;7378224;19;20209;-88
2022/12/04 02:35:43;;;;;;;;;;;;;;;7.75;72.16;101159.66;7379312;19;19930;-88
2022/12/04 02:38:16;;;;;;;;;;;;;;;7.76;72.32;101163.09;7380065;19;20403;-87
2022/12/04 02:40:46;;;;;;;;;;;;;;;7.83;71.97;101157.22;7378085;19;19923;-89
2022/12/04 02:43:16;;;;;;;;;;;;;;;7.87;72.23;101160.44;7377237;19;19918;-87
2022/12/04 02:45:45;;;;;;;;;;;;;;;7.86;72.76;101150.91;7379177;19;19927;-87
2022/12/04 02:48:16;;;;;;;;;;;;;;;7.86;72.36;101156.97;7377116;19;20274;-87
2022/12/04 02:53:58;;;;;;;;;;;;;;;7.85;70.98;101151.84;7382221;19;19911;-87
2022/12/04 02:56:39;;;;;;;;;;;;;;;7.77;71.90;101152.50;7382312;19;19923;-86
2022/12/04 02:59:20;;;;;;;;;;;;;;;7.72;72.51;101145.00;7379570;19;20697;-89
2022/12/04 03:02:06;;;;;;;;;;;;;;;7.71;72.51;101142.53;7381425;19;19986;-88
2022/12/04 03:04:38;;;;;;;;;;;;;;;7.71;72.80;101145.97;7381816;19;19915;-87
2022/12/04 03:07:25;;;;;;;;;;;;;;;7.73;71.76;101144.03;7381763;19;20644;-86
2022/12/04 03:09:56;;;;;;;;;;;;;;;7.73;72.53;101146.66;7383174;19;20274;-88
2022/12/04 03:12:27;;;;;;;;;;;;;;;7.71;72.10;101145.16;7381813;19;19922;-89
2022/12/04 03:14:57;;;;;;;;;;;;;;;7.69;72.31;101147.06;7379204;19;19919;-87
2022/12/04 03:20:45;;;;;;;;;;;;;;;7.68;72.31;101142.75;7384275;19;19954;-86
2022/12/04 03:23:15;;;;;;;;;;;;;;;7.63;72.47;101137.06;7386852;19;19921;-88
2022/12/04 03:25:47;;;;;;;;;;;;;;;7.62;72.64;101138.03;7387647;19;20318;-87
2022/12/04 03:28:21;;;;;;;;;;;;;;;7.60;72.72;101132.09;7388161;19;19923;-86
2022/12/04 03:30:50;;;;;;;;;;;;;;;7.56;73.55;101134.16;7387864;19;19933;-87
2022/12/04 03:33:20;;;;;;;;;;;;;;;7.56;72.95;101134.16;7388893;19;19966;-88
2022/12/04 03:35:50;;;;;;;;;;;;;;;7.51;73.30;101128.47;7389468;19;19922;-87
2022/12/04 03:38:17;;;;;;;;;;;;;;;7.51;73.05;101136.31;7392097;19;19930;-87
2022/12/04 03:40:47;;;;;;;;;;;;;;;7.53;73.47;101129.16;7389464;19;19923;-87
2022/12/04 03:43:21;;;;;;;;;;;;;;;7.46;73.66;101127.19;7390179;19;19922;-87
2022/12/04 03:45:54;;;;;;;;;;;;;;;7.48;73.82;101125.25;7390791;19;19990;-87
2022/12/04 03:48:23;;;;;;;;;;;;;;;7.44;74.01;101129.06;7388454;19;19933;-87
2022/12/04 03:50:54;;;;;;;;;;;;;;;7.43;74.83;101128.25;7390765;19;20234;-87
2022/12/04 03:53:30;;;;;;;;;;;;;;;7.40;75.11;101127.66;7392120;19;20332;-87
2022/12/04 03:56:10;;;;;;;;;;;;;;;7.42;75.57;101131.81;7392102;19;19986;-86
2022/12/04 03:58:39;;;;;;;;;;;;;;;7.42;76.29;101133.59;7388927;19;20596;-88
2022/12/04 04:01:09;;;;;;;;;;;;;;;7.35;77.48;101132.44;7392960;19;19940;-89
2022/12/04 04:03:43;;;;;;;;;;;;;;;7.36;78.48;101136.72;7388935;19;19928;-89
2022/12/04 04:06:12;;;;;;;;;;;;;;;7.38;78.47;101134.81;7389743;19;20353;-86
2022/12/04 04:08:42;;;;;;;;;;;;;;;7.41;78.48;101134.56;7388201;19;20384;-88
2022/12/04 04:11:12;;;;;;;;;;;;;;;7.40;79.52;101131.13;7387361;19;19919;-87
2022/12/04 04:26:28;;;;;;;;;;;;;;;7.27;80.13;101130.44;7385748;19;19925;-87
2022/12/04 04:28:55;;;;;;;;;;;;;;;7.29;79.55;101131.97;7386194;19;19915;-86
2022/12/04 04:31:25;;;;;;;;;;;;;;;7.27;79.80;101133.88;7387338;19;20559;-88
2022/12/04 04:33:58;;;;;;;;;;;;;;;7.25;79.95;101130.56;7380778;19;20295;-88
2022/12/04 04:36:35;;;;;;;;;;;;;;;7.24;80.20;101131.53;7386769;19;19923;-87
2022/12/04 04:39:30;;;;;;;;;;;;;;;7.23;79.51;101135.09;7381322;19;19926;-87
2022/12/04 04:42:02;;;;;;;;;;;;;;;7.22;79.49;101128.19;7379961;19;19919;-87
2022/12/04 04:44:32;;;;;;;;;;;;;;;7.22;79.23;101124.75;7381387;19;19911;-87
2022/12/04 04:47:02;;;;;;;;;;;;;;;7.21;79.57;101125.72;7381465;19;19947;-87
2022/12/04 04:49:31;;;;;;;;;;;;;;;7.23;79.43;101123.78;7385432;19;20232;-87
2022/12/04 04:51:59;;;;;;;;;;;;;;;7.19;79.21;101125.00;7379648;19;19950;-88
2022/12/04 04:54:27;;;;;;;;;;;;;;;7.21;79.59;101120.50;7379589;19;19919;-88
2022/12/04 04:56:54;;;;;;;;;;;;;;;7.22;79.81;101129.97;7382826;19;19926;-86
2022/12/04 04:59:21;;;;;;;;;;;;;;;7.25;79.57;101119.28;7384346;19;19961;-86
2022/12/04 05:01:48;;;;;;;;;;;;;;;7.26;79.39;101126.97;7386512;19;19914;-88
2022/12/04 05:04:15;;;;;;;;;;;;;;;7.25;80.18;101130.56;7386877;19;19943;-86
2022/12/04 05:06:42;;;;;;;;;;;;;;;7.25;80.36;101132.38;7388752;19;19927;-90
2022/12/04 05:09:09;;;;;;;;;;;;;;;7.24;81.14;101130.69;7386766;19;19955;-86
2022/12/04 05:14:53;;;;;;;;;;;;;;;7.27;81.13;101133.88;7387342;19;19914;-86
2022/12/04 05:17:20;;;;;;;;;;;;;;;7.26;81.78;101140.06;7383487;19;19915;-89
2022/12/04 05:22:21;;;;;;;;;;;;;;;7.22;82.29;101141.28;7388670;19;19982;-89
2022/12/04 05:25:22;;;;;;;;;;;;;;;7.19;82.95;101132.84;7384951;19;19927;-90
2022/12/04 05:27:50;;;;;;;;;;;;;;;7.15;83.68;101136.69;7386766;19;19915;-86
2022/12/04 05:30:19;;;;;;;;;;;;;;;7.14;84.08;101135.00;7386524;19;20317;-87
2022/12/04 05:32:49;;;;;;;;;;;;;;;7.17;84.14;101134.75;7385524;19;19922;-89
2022/12/04 05:35:16;;;;;;;;;;;;;;;7.12;84.56;101132.50;7385630;19;19958;-88
2022/12/04 05:37:44;;;;;;;;;;;;;;;7.13;85.31;101125.50;7386231;19;19929;-88
2022/12/04 05:40:11;;;;;;;;;;;;;;;7.12;85.52;101129.06;7384742;19;19915;-88
2022/12/04 05:42:38;;;;;;;;;;;;;;;7.15;85.22;101131.44;7385471;19;19929;-87
2022/12/04 05:45:05;;;;;;;;;;;;;;;7.15;84.89;101132.28;7382903;19;19921;-87
2022/12/04 05:47:36;;;;;;;;;;;;;;;7.17;85.01;101137.38;7385125;19;19955;-88
2022/12/04 05:50:06;;;;;;;;;;;;;;;7.18;85.13;101131.19;7385215;19;20303;-89
2022/12/04 05:52:33;;;;;;;;;;;;;;;7.16;85.40;101138.34;7383548;19;19927;-87
2022/12/04 05:55:04;;;;;;;;;;;;;;;7.20;85.77;101137.13;7382939;19;19931;-89
2022/12/04 05:57:31;;;;;;;;;;;;;;;7.17;85.15;101143.44;7384411;19;20575;-87
2022/12/04 06:00:03;;;;;;;;;;;;;;;7.15;85.26;101134.06;7386344;19;20452;-87
2022/12/04 06:02:32;;;;;;;;;;;;;;;7.16;85.82;101126.06;7383745;19;19923;-88
2022/12/04 06:05:00;;;;;;;;;;;;;;;7.18;85.81;101129.41;7384017;19;19929;-87
2022/12/04 06:07:27;;;;;;;;;;;;;;;7.22;86.57;101137.81;7385038;19;19941;-87
2022/12/04 06:09:55;;;;;;;;;;;;;;;7.26;85.48;101139.25;7384260;19;19930;-89
2022/12/04 06:15:44;;;;;;;;;;;;;;;7.26;85.50;101147.91;7383866;19;19914;-89
2022/12/04 06:18:12;;;;;;;;;;;;;;;7.24;86.19;101141.16;7385000;19;19978;-87
2022/12/04 06:20:44;;;;;;;;;;;;;;;7.28;86.44;101137.34;7382789;19;19930;-88
2022/12/04 06:23:14;;;;;;;;;;;;;;;7.32;86.56;101138.75;7383956;19;19987;-88
2022/12/04 06:25:41;;;;;;;;;;;;;;;7.36;86.54;101152.44;7387195;19;19933;-89
2022/12/04 06:28:09;;;;;;;;;;;;;;;7.34;85.97;101149.94;7384430;19;20236;-88
2022/12/04 06:30:36;;;;;;;;;;;;;;;7.31;86.22;101144.97;7384932;19;19929;-88
2022/12/04 06:33:03;;;;;;;;;;;;;;;7.29;86.83;101142.47;7382639;19;19926;-86
2022/12/04 06:35:30;;;;;;;;;;;;;;;7.26;86.81;101141.88;7379643;19;19907;-88
2022/12/04 06:37:57;;;;;;;;;;;;;;;7.29;86.51;101139.84;7383194;19;19990;-88
2022/12/04 06:43:44;;;;;;;;;;;;;;;7.40;85.97;101143.38;7383098;19;19918;-88
2022/12/04 06:46:15;;;;;;;;;;;;;;;7.44;85.60;101136.94;7380716;19;19922;-89
2022/12/04 06:48:42;;;;;;;;;;;;;;;7.41;85.15;101147.66;7379853;19;20595;-89
2022/12/04 06:51:15;;;;;;;;;;;;;;;7.41;85.75;101150.28;7380650;19;20893;-89
2022/12/04 06:53:44;;;;;;;;;;;;;;;7.40;85.30;101146.81;7380540;19;19919;-86
2022/12/04 06:56:16;;;;;;;;;;;;;;;7.37;85.62;101144.44;7385538;19;19931;-89
2022/12/04 06:58:44;;;;;;;;;;;;;;;7.38;85.77;101140.88;7391771;19;19926;-88
2022/12/04 07:01:18;;;;;;;;;;;;;;;7.38;86.21;101140.88;7392057;19;19923;-89
2022/12/04 07:03:49;;;;;;;;;;;;;;;7.37;85.52;101143.59;7390327;19;20250;-89
2022/12/04 07:06:18;;;;;;;;;;;;;;;7.36;86.08;101147.19;7390296;19;19926;-87
2022/12/04 07:08:46;;;;;;;;;;;;;;;7.37;86.42;101143.59;7388124;19;19914;-87
2022/12/04 07:11:15;;;;;;;;;;;;;;;7.37;86.12;101146.22;7389011;19;19950;-87
2022/12/04 07:13:42;;;;;;;;;;;;;;;7.36;86.50;101147.19;7387380;19;19949;-87
2022/12/04 07:16:14;;;;;;;;;;;;;;;7.35;87.10;101150.75;7387621;19;19926;-87
2022/12/04 07:18:43;;;;;;;;;;;;;;;7.39;87.41;101149.56;7386960;19;19927;-88
2022/12/04 07:21:14;;;;;;;;;;;;;;;7.42;87.34;101150.13;7383077;19;19955;-88
2022/12/04 07:23:42;;;;;;;;;;;;;;;7.42;87.23;101162.38;7381715;19;19915;-88
2022/12/04 07:26:12;;;;;;;;;;;;;;;7.40;87.69;101159.06;7385410;19;20517;-86
2022/12/04 07:28:44;;;;;;;;;;;;;;;7.39;88.48;101158.25;7384440;19;19922;-88
2022/12/04 07:31:12;;;;;;;;;;;;;;;7.40;88.96;101159.91;7386519;19;19942;-86
2022/12/04 07:33:39;;;;;;;;;;;;;;;7.42;88.76;101163.22;7385030;19;19947;-87
2022/12/04 07:36:12;;;;;;;;;;;;;;;7.47;89.54;101158.44;7382702;19;19923;-88
2022/12/04 07:38:39;;;;;;;;;;;;;;;7.51;89.39;101170.34;7389744;19;19982;-89
2022/12/04 07:41:13;;;;;;;;;;;;;;;7.56;88.69;101173.44;7390520;19;19919;-88
2022/12/04 07:43:43;;;;;;;;;;;;;;;7.58;88.45;101171.50;7389531;19;20330;-89
2022/12/04 07:46:11;;;;;;;;;;;;;;;7.58;87.78;101168.88;7391848;19;19923;-88
2022/12/04 07:48:39;;;;;;;;;;;;;;;7.57;87.84;101172.44;7388471;19;20291;-88
2022/12/04 07:51:07;;;;;;;;;;;;;;;7.55;87.48;101169.13;7388927;19;19926;-89
2022/12/04 07:53:35;;;;;;;;;;;;;;;7.56;88.01;101172.59;7387661;19;20148;-88
2022/12/04 07:56:05;;;;;;;;;;;;;;;7.63;87.76;101171.13;7385119;19;19915;-88
2022/12/04 07:58:32;;;;;;;;;;;;;;;7.67;86.17;101177.75;7387234;19;20254;-86
2022/12/04 08:01:05;;;;;;;;;;;;;;;7.66;86.80;101179.56;7394332;19;19940;-87
2022/12/04 08:03:53;;;;;;;;;;;;;;;7.64;87.48;101183.25;7387372;19;19929;-88
2022/12/04 08:06:23;;;;;;;;;;;;;;;7.65;87.49;101184.94;7389740;19;19918;-87
2022/12/04 08:08:51;;;;;;;;;;;;;;;7.67;87.33;101189.06;7388712;19;20348;-88
2022/12/04 08:11:21;;;;;;;;;;;;;;;7.70;87.29;101180.97;7391012;19;19960;-88
2022/12/04 08:13:48;;;;;;;;;;;;;;;7.71;87.46;101187.88;7386527;19;19914;-85
2022/12/04 08:22:52;;;;;;;;;;;;;;;7.70;87.39;101186.22;7387678;19;19929;-89
2022/12/04 08:25:19;;;;;;;;;;;;;;;7.74;87.49;101192.84;7386278;19;19919;-88
2022/12/04 08:27:46;;;;;;;;;;;;;;;7.74;87.57;101194.66;7382319;19;20444;-88
2022/12/04 08:30:14;;;;;;;;;;;;;;;7.70;87.36;101194.06;7381862;19;19922;-88
2022/12/04 08:32:41;;;;;;;;;;;;;;;7.68;87.86;101203.00;7382517;19;19922;-86
2022/12/04 08:35:09;;;;;;;;;;;;;;;7.68;87.94;101197.75;7382967;19;19919;-87
2022/12/04 08:37:37;;;;;;;;;;;;;;;7.70;87.81;101204.53;7383838;19;19929;-89
2022/12/04 08:40:19;;;;;;;;;;;;;;;7.72;88.06;101204.41;7380253;19;20558;-89
2022/12/04 08:42:46;;;;;;;;;;;;;;;7.78;87.71;101210.94;7383016;19;19919;-88
2022/12/04 08:45:16;;;;;;;;;;;;;;;7.77;87.89;101207.50;7381860;19;19923;-87
2022/12/04 08:47:45;;;;;;;;;;;;;;;7.76;86.82;101205.00;7382276;19;19914;-87
2022/12/04 08:50:18;;;;;;;;;;;;;;;7.75;86.89;101206.78;7383522;19;19951;-88
2022/12/04 08:52:47;;;;;;;;;;;;;;;7.73;88.21;101212.13;7385147;19;20845;-88
2022/12/04 08:55:19;;;;;;;;;;;;;;;7.67;87.74;101222.28;7380978;19;20037;-88
2022/12/04 08:57:46;;;;;;;;;;;;;;;7.66;88.03;101225.88;7379004;19;20545;-87
2022/12/04 09:00:14;;;;;;;;;;;;;;;7.63;88.21;101223.47;7381805;19;19941;-88
2022/12/04 09:02:41;;;;;;;;;;;;;;;7.66;87.33;101226.72;7393280;19;19911;-86
2022/12/04 09:05:11;;;;;;;;;;;;;;;7.64;87.38;101231.22;7402104;19;19943;-87
2022/12/04 09:07:37;;;;;;;;;;;;;;;7.65;87.46;101227.66;7383877;19;19943;-88
2022/12/04 09:10:05;;;;;;;;;;;;;;;7.68;86.64;101232.63;7386198;19;19919;-86
2022/12/04 09:12:32;;;;;;;;;;;;;;;7.68;86.64;101226.56;7389359;19;19919;-87
2022/12/04 09:15:02;;;;;;;;;;;;;;;7.70;86.96;101230.72;7383030;19;19958;-88
2022/12/04 09:17:29;;;;;;;;;;;;;;;7.74;87.07;101239.16;7383480;19;19927;-87
2022/12/04 09:20:07;;;;;;;;;;;;;;;7.75;87.14;101232.97;7380824;19;19918;-89
2022/12/04 09:22:37;;;;;;;;;;;;;;;7.78;86.01;101232.72;7382770;19;19926;-87
2022/12/04 09:25:30;;;;;;;;;;;;;;;7.80;85.88;101240.47;7384663;19;19911;-87
2022/12/04 09:27:57;;;;;;;;;;;;;;;7.81;85.93;101234.28;7381830;19;19915;-89
2022/12/04 09:30:27;;;;;;;;;;;;;;;7.82;86.47;101238.56;7382358;19;19990;-87
2022/12/04 09:32:57;;;;;;;;;;;;;;;7.82;85.78;101234.16;7382340;19;19915;-88
2022/12/04 09:35:24;;;;;;;;;;;;;;;7.83;85.60;101235.78;7389283;19;19951;-88
2022/12/04 09:37:51;;;;;;;;;;;;;;;7.87;85.15;101233.78;7382682;19;19979;-87
2022/12/04 09:40:25;;;;;;;;;;;;;;;7.88;82.66;101235.41;7385315;19;19930;-89
2022/12/04 09:43:14;;;;;;;;;;;;;;;7.89;81.76;101242.31;7385321;19;19939;-87
2022/12/04 09:46:07;;;;;;;;;;;;;;;7.92;81.96;101236.84;7387616;19;19926;-89
2022/12/04 09:48:45;;;;;;;;;;;;;;;7.95;80.34;101242.66;7383005;19;19915;-88
2022/12/04 09:51:17;;;;;;;;;;;;;;;8.00;80.08;101243.13;7388207;19;19915;-88
2022/12/04 09:53:47;;;;;;;;;;;;;;;8.04;79.57;101238.44;7385415;19;20002;-88
2022/12/04 09:56:19;;;;;;;;;;;;;;;8.03;79.18;101244.63;7382385;19;19925;-88
2022/12/04 09:58:47;;;;;;;;;;;;;;;8.07;79.41;101241.66;7382234;19;19918;-86
2022/12/04 10:01:20;;;;;;;;;;;;;;;8.12;78.47;101236.88;7383807;19;19927;-89
2022/12/04 10:06:55;;;;;;;;;;;;;;;8.02;79.17;101245.63;7386955;19;20349;-88
2022/12/04 10:09:30;;;;;;;;;;;;;;;8.03;79.21;101252.50;7381942;19;19918;-89
2022/12/04 10:12:14;;;;;;;;;;;;;;;8.03;80.29;101255.13;7382914;19;21254;-88
2022/12/04 10:14:41;;;;;;;;;;;;;;;8.01;80.17;101246.56;7381566;19;21220;-87
2022/12/04 10:17:08;;;;;;;;;;;;;;;7.98;81.12;101247.63;7385486;19;19936;-87
2022/12/04 10:19:42;;;;;;;;;;;;;;;7.96;82.44;101236.47;7385183;19;20651;-88
2022/12/04 10:22:18;;;;;;;;;;;;;;;7.94;81.16;101248.00;7385237;19;20326;-89
2022/12/04 10:24:51;;;;;;;;;;;;;;;7.95;81.19;101240.03;7377338;19;20557;-87
2022/12/04 10:27:33;;;;;;;;;;;;;;;7.97;81.83;101237.31;7380262;19;20328;-88
2022/12/04 10:30:03;;;;;;;;;;;;;;;8.01;81.24;101239.53;7383350;19;19926;-89
2022/12/04 10:32:35;;;;;;;;;;;;;;;8.04;82.37;101235.81;7383014;19;19930;-88
2022/12/04 10:35:21;;;;;;;;;;;;;;;8.02;80.10;101238.59;7378051;19;19926;-89
2022/12/04 10:37:54;;;;;;;;;;;;;;;8.09;80.29;101225.78;7383037;19;19954;-89
2022/12/04 10:40:26;;;;;;;;;;;;;;;8.14;78.54;101223.63;7386293;19;19934;-88
2022/12/04 10:43:05;;;;;;;;;;;;;;;8.20;77.79;101225.75;7384165;19;19911;-88
2022/12/04 10:45:36;;;;;;;;;;;;;;;8.20;78.65;101228.38;7383904;19;19929;-89
2022/12/04 10:48:09;;;;;;;;;;;;;;;8.18;77.42;101213.75;7381934;19;20212;-88
2022/12/04 10:50:37;;;;;;;;;;;;;;;8.17;77.65;101220.78;7393083;19;20248;-90
2022/12/04 10:53:13;;;;;;;;;;;;;;;8.18;77.20;101219.78;7385435;19;20884;-89
2022/12/04 10:55:43;;;;;;;;;;;;;;;8.17;77.77;101228.63;7391990;19;19910;-88
2022/12/04 10:58:17;;;;;;;;;;;;;;;8.19;77.44;101224.06;7394094;19;20256;-88
2022/12/04 11:00:59;;;;;;;;;;;;;;;8.22;76.67;101226.47;7386921;19;19919;-88
2022/12/04 11:03:28;;;;;;;;;;;;;;;8.17;77.16;101223.38;7388110;19;19994;-89
2022/12/04 11:05:59;;;;;;;;;;;;;;;8.18;77.38;101220.63;7389238;19;19925;-89
2022/12/04 11:08:38;;;;;;;;;;;;;;;8.22;77.08;101220.38;7387608;19;20347;-88
2022/12/04 11:11:10;;;;;;;;;;;;;;;8.23;77.41;101227.28;7384228;19;19928;-88
2022/12/04 11:13:37;;;;;;;;;;;;;;;8.21;77.38;101222.16;7382606;19;19926;-89
2022/12/04 11:16:06;;;;;;;;;;;;;;;8.25;76.89;101231.44;7383647;19;19982;-87
2022/12/04 11:18:45;;;;;;;;;;;;;;;8.30;76.10;101218.81;7378237;19;19948;-88
2022/12/04 11:21:18;;;;;;;;;;;;;;;8.31;76.17;101219.63;7379227;19;19922;-87
2022/12/04 11:23:46;;;;;;;;;;;;;;;8.33;75.83;101225.59;7382293;19;19927;-89
2022/12/04 11:26:16;;;;;;;;;;;;;;;8.30;76.01;101231.91;7381390;19;19936;-86
2022/12/04 11:31:54;;;;;;;;;;;;;;;8.32;76.04;101226.56;7386348;19;20368;-90
2022/12/04 11:38:13;;;;;;;;;;;;;;;8.33;76.09;101225.59;7394413;19;19925;-90
2022/12/04 11:44:19;;;;;;;;;;;;;;;8.30;76.25;101236.31;7411254;19;19939;-88
2022/12/04 11:46:50;;;;;;;;;;;;;;;8.31;76.06;101236.19;7382799;19;19925;-87
2022/12/04 11:49:20;;;;;;;;;;;;;;;8.28;76.43;101232.97;7382817;19;19919;-88
2022/12/04 11:51:57;;;;;;;;;;;;;;;8.27;76.96;101242.63;7384822;19;19918;-88
2022/12/04 12:01:12;;;;;;;;;;;;;;;8.28;77.68;101236.41;7391039;19;19959;-89
2022/12/04 12:03:48;;;;;;;;;;;;;;;8.26;77.71;101232.25;7389159;19;19915;-90
2022/12/04 12:06:21;;;;;;;;;;;;;;;8.28;76.31;101233.78;7397300;19;19915;-90
2022/12/04 12:08:48;;;;;;;;;;;;;;;8.24;76.35;101229.75;7395061;19;19919;-90
2022/12/04 12:14:42;;;;;;;;;;;;;;;8.18;77.00;101221.59;7390783;19;19929;-87
2022/12/04 12:17:13;;;;;;;;;;;;;;;8.18;77.28;101224.22;7383049;19;19922;-86
2022/12/04 12:19:44;;;;;;;;;;;;;;;8.19;77.62;101231.94;7390734;19;20236;-85
2022/12/04 12:22:12;;;;;;;;;;;;;;;8.21;76.92;101223.97;7386661;19;19929;-87
2022/12/04 12:24:49;;;;;;;;;;;;;;;8.16;77.61;101225.19;7382882;19;19943;-89
2022/12/04 12:27:18;;;;;;;;;;;;;;;8.13;77.78;101221.97;7377352;19;19949;-87
2022/12/04 12:29:52;;;;;;;;;;;;;;;8.15;77.84;101220.88;7383429;19;19923;-88
2022/12/04 12:32:30;;;;;;;;;;;;;;;8.16;78.13;101222.56;7381548;19;19926;-87
2022/12/04 12:34:57;;;;;;;;;;;;;;;8.21;77.46;101221.34;7383476;19;19940;-86
2022/12/04 12:37:30;;;;;;;;;;;;;;;8.18;77.15;101209.31;7384730;19;19952;-85
2022/12/04 12:40:13;;;;;;;;;;;;;;;8.20;77.43;101214.41;7383116;19;19929;-87
2022/12/04 12:42:45;;;;;;;;;;;;;;;8.18;77.49;101203.25;7385033;19;19977;-87
2022/12/04 12:45:33;;;;;;;;;;;;;;;8.18;77.41;101201.44;7382071;19;20518;-87
2022/12/04 12:48:05;;;;;;;;;;;;;;;8.21;77.44;101205.59;7380903;19;19919;-86
2022/12/04 12:50:40;;;;;;;;;;;;;;;8.18;77.43;101190.94;7378866;19;20521;-87
2022/12/04 12:53:12;;;;;;;;;;;;;;;8.18;77.45;101194.41;7378744;19;19927;-86
2022/12/04 12:55:43;;;;;;;;;;;;;;;8.14;77.65;101182.53;7378994;19;19927;-86
2022/12/04 12:58:25;;;;;;;;;;;;;;;8.13;78.05;101183.47;7382518;19;19927;-86
2022/12/04 13:01:01;;;;;;;;;;;;;;;8.09;77.15;101189.94;7381526;19;19936;-86
2022/12/04 13:03:29;;;;;;;;;;;;;;;8.13;77.35;101180.84;7368595;19;20416;-88
2022/12/04 13:06:01;;;;;;;;;;;;;;;8.17;77.92;101191.94;7380819;19;19925;-84
2022/12/04 13:08:31;;;;;;;;;;;;;;;8.19;77.41;101184.75;7377345;19;19926;-85
2022/12/04 13:11:00;;;;;;;;;;;;;;;8.19;77.73;101184.75;7363561;19;20698;-85
2022/12/04 13:13:29;;;;;;;;;;;;;;;8.15;78.37;101184.19;7367534;19;20408;-87
2022/12/04 13:16:00;;;;;;;;;;;;;;;8.18;78.36;101194.41;7367970;19;19918;-85
2022/12/04 13:18:29;;;;;;;;;;;;;;;8.26;78.21;101187.72;7372350;19;19915;-83
2022/12/04 13:21:02;;;;;;;;;;;;;;;8.30;78.70;101194.38;7372169;19;19914;-86
2022/12/04 13:23:31;;;;;;;;;;;;;;;8.32;78.43;101190.69;7378604;19;19919;-87
2022/12/04 13:25:59;;;;;;;;;;;;;;;8.33;77.79;101187.06;7379010;19;19925;-88
2022/12/04 13:28:27;;;;;;;;;;;;;;;8.31;77.37;101196.03;7379329;19;19919;-88
2022/12/04 13:31:04;;;;;;;;;;;;;;;8.29;77.71;101195.31;7382800;19;19922;-86
2022/12/04 13:33:31;;;;;;;;;;;;;;;8.27;78.33;101192.81;7388552;19;19923;-87
2022/12/04 13:36:00;;;;;;;;;;;;;;;8.28;78.07;101191.03;7378193;19;19950;-86
2022/12/04 13:38:30;;;;;;;;;;;;;;;8.32;78.40;101197.72;7383166;19;19915;-87
2022/12/04 13:41:02;;;;;;;;;;;;;;;8.33;77.34;101192.31;7382211;19;20448;-87
2022/12/04 13:43:35;;;;;;;;;;;;;;;8.32;76.97;101193.31;7376160;19;19915;-86
2022/12/04 13:46:05;;;;;;;;;;;;;;;8.31;77.48;101194.25;7374633;19;19925;-87
2022/12/04 13:48:41;;;;;;;;;;;;;;;8.32;76.79;101189.84;7379220;19;20627;-88
2022/12/04 13:51:13;;;;;;;;;;;;;;;8.33;76.70;101188.91;7379887;19;19943;-86
2022/12/04 13:53:41;;;;;;;;;;;;;;;8.31;76.36;101190.81;7381002;19;19952;-86
2022/12/04 13:56:21;;;;;;;;;;;;;;;8.30;76.82;101194.38;7376238;19;19911;-87
2022/12/04 13:58:57;;;;;;;;;;;;;;;8.33;76.33;101199.38;7380065;19;20321;-87
2022/12/04 14:01:29;;;;;;;;;;;;;;;8.35;76.29;101190.41;7378518;19;19943;-87
2022/12/04 14:03:58;;;;;;;;;;;;;;;8.35;76.25;101197.44;7376573;19;20308;-89
2022/12/04 14:06:30;;;;;;;;;;;;;;;8.33;76.33;101196.75;7378584;19;19922;-89
2022/12/04 14:08:59;;;;;;;;;;;;;;;8.32;76.28;101197.72;7378592;19;19918;-86
2022/12/04 14:14:54;;;;;;;;;;;;;;;8.22;76.89;101202.88;7382246;19;19914;-87
2022/12/04 14:17:25;;;;;;;;;;;;;;;8.18;76.94;101196.19;7374956;19;19915;-87
2022/12/04 14:19:53;;;;;;;;;;;;;;;8.17;77.26;101189.31;7371992;19;19922;-86
2022/12/04 14:22:27;;;;;;;;;;;;;;;8.18;77.25;101194.41;7374406;19;19927;-89
2022/12/04 14:25:04;;;;;;;;;;;;;;;8.19;77.25;101195.25;7382390;19;19918;-90
2022/12/04 14:27:41;;;;;;;;;;;;;;;8.22;77.35;101187.16;7374803;19;19923;-88
2022/12/04 14:30:22;;;;;;;;;;;;;;;8.21;77.55;101192.50;7377354;19;20564;-89
2022/12/04 14:32:53;;;;;;;;;;;;;;;8.23;77.70;101190.59;7377953;19;19923;-86
2022/12/04 14:35:25;;;;;;;;;;;;;;;8.23;77.60;101193.22;7376738;19;19918;-87
2022/12/04 14:37:55;;;;;;;;;;;;;;;8.25;77.55;101194.75;7375366;19;19947;-87
2022/12/04 14:40:29;;;;;;;;;;;;;;;8.25;77.84;101191.28;7379089;19;20414;-87